sensor_id;sensor_type;location;lat;lon;timestamp;pressure;altitude;pressure_sealevel;temperature;humidity
58473;BME280;44775;51.564;5.460;2023-04-01T00:02:00;98852.25;;;8.70;100.00
58473;BME280;44775;51.564;5.460;2023-04-01T00:04:25;98856.38;;;8.66;100.00
58473;BME280;44775;51.564;5.460;2023-04-01T00:06:50;98856.78;;;8.70;100.00
58473;BME280;44775;51.564;5.460;2023-04-01T00:09:16;98851.84;;;8.67;100.00
58473;BME280;44775;51.564;5.460;2023-04-01T00:11:42;98845.13;;;8.58;100.00
58473;BME280;44775;51.564;5.460;2023-04-01T00:14:07;98851.66;;;8.55;100.00
58473;BME280;44775;51.564;5.460;2023-04-01T00:16:33;98858.84;;;8.68;100.00
58473;BME280;44775;51.564;5.460;2023-04-01T00:18:58;98859.25;;;8.65;100.00
58473;BME280;44775;51.564;5.460;2023-04-01T00:21:23;98865.16;;;8.60;100.00
58473;BME280;44775;51.564;5.460;2023-04-01T00:23:50;98856.38;;;8.60;100.00
58473;BME280;44775;51.564;5.460;2023-04-01T00:26:16;98847.97;;;8.56;100.00
58473;BME280;44775;51.564;5.460;2023-04-01T00:28:44;98851.84;;;8.54;100.00
58473;BME280;44775;51.564;5.460;2023-04-01T00:31:10;98855.97;;;8.63;100.00
58473;BME280;44775;51.564;5.460;2023-04-01T00:33:36;98859.66;;;8.55;100.00
58473;BME280;44775;51.564;5.460;2023-04-01T00:36:12;98870.72;;;8.72;100.00
58473;BME280;44775;51.564;5.460;2023-04-01T00:38:38;98867.84;;;8.60;100.00
58473;BME280;44775;51.564;5.460;2023-04-01T00:41:05;98871.13;;;8.62;100.00
58473;BME280;44775;51.564;5.460;2023-04-01T00:43:31;98874.41;;;8.64;100.00
58473;BME280;44775;51.564;5.460;2023-04-01T00:45:56;98874.41;;;8.64;100.00
58473;BME280;44775;51.564;5.460;2023-04-01T00:48:25;98868.25;;;8.57;100.00
58473;BME280;44775;51.564;5.460;2023-04-01T00:51:04;98877.06;;;8.64;100.00
58473;BME280;44775;51.564;5.460;2023-04-01T00:53:31;98884.44;;;8.56;100.00
58473;BME280;44775;51.564;5.460;2023-04-01T00:56:04;98872.97;;;8.68;100.00
58473;BME280;44775;51.564;5.460;2023-04-01T00:58:34;98883.22;;;8.65;100.00
58473;BME280;44775;51.564;5.460;2023-04-01T01:01:00;98878.06;;;8.63;100.00
58473;BME280;44775;51.564;5.460;2023-04-01T01:03:27;98884.66;;;8.67;100.00
58473;BME280;44775;51.564;5.460;2023-04-01T01:17:05;98893.47;;;8.68;100.00
58473;BME280;44775;51.564;5.460;2023-04-01T01:22:27;98894.25;;;8.55;100.00
58473;BME280;44775;51.564;5.460;2023-04-01T01:25:32;98894.25;;;8.55;100.00
58473;BME280;44775;51.564;5.460;2023-04-01T01:36:12;98906.53;;;8.56;100.00
58473;BME280;44775;51.564;5.460;2023-04-01T01:38:39;98897.31;;;8.52;100.00
58473;BME280;44775;51.564;5.460;2023-04-01T01:41:06;98897.94;;;8.47;100.00
58473;BME280;44775;51.564;5.460;2023-04-01T01:43:36;98898.16;;;8.52;100.00
58473;BME280;44775;51.564;5.460;2023-04-01T01:46:13;98914.13;;;8.52;100.00
58473;BME280;44775;51.564;5.460;2023-04-01T01:48:41;98911.66;;;8.51;100.00
58473;BME280;44775;51.564;5.460;2023-04-01T01:51:08;98917.41;;;8.55;100.00
58473;BME280;44775;51.564;5.460;2023-04-01T01:53:34;98917.59;;;8.60;100.00
58473;BME280;44775;51.564;5.460;2023-04-01T01:56:00;98902.44;;;8.47;100.00
58473;BME280;44775;51.564;5.460;2023-04-01T02:01:03;98917.81;;;8.58;100.00
58473;BME280;44775;51.564;5.460;2023-04-01T02:03:33;98922.31;;;8.51;100.00
58473;BME280;44775;51.564;5.460;2023-04-01T02:06:00;98920.25;;;8.53;100.00
58473;BME280;44775;51.564;5.460;2023-04-01T02:08:30;98925.56;;;8.53;100.00
58473;BME280;44775;51.564;5.460;2023-04-01T02:11:03;98931.31;;;8.50;100.00
58473;BME280;44775;51.564;5.460;2023-04-01T02:14:13;98936.63;;;8.50;100.00
58473;BME280;44775;51.564;5.460;2023-04-01T02:16:32;98940.53;;;8.47;100.00
58473;BME280;44775;51.564;5.460;2023-04-01T02:18:59;98933.34;;;8.41;100.00
58473;BME280;44775;51.564;5.460;2023-04-01T02:21:30;98936.84;;;8.42;100.00
58473;BME280;44775;51.564;5.460;2023-04-01T02:23:58;98922.28;;;8.38;100.00
58473;BME280;44775;51.564;5.460;2023-04-01T02:26:26;98940.72;;;8.39;100.00
58473;BME280;44775;51.564;5.460;2023-04-01T02:28:53;98943.19;;;8.41;100.00
58473;BME280;44775;51.564;5.460;2023-04-01T02:31:20;98941.06;;;8.36;100.00
58473;BME280;44775;51.564;5.460;2023-04-01T02:33:46;98942.72;;;8.31;100.00
58473;BME280;44775;51.564;5.460;2023-04-01T02:36:13;98944.00;;;8.41;100.00
58473;BME280;44775;51.564;5.460;2023-04-01T02:38:40;98939.03;;;8.32;100.00
58473;BME280;44775;51.564;5.460;2023-04-01T02:41:05;98943.13;;;8.27;100.00
58473;BME280;44775;51.564;5.460;2023-04-01T02:43:31;98942.88;;;8.22;100.00
58473;BME280;44775;51.564;5.460;2023-04-01T02:45:56;98944.53;;;8.23;100.00
58473;BME280;44775;51.564;5.460;2023-04-01T02:48:22;98944.97;;;8.34;100.00
58473;BME280;44775;51.564;5.460;2023-04-01T02:50:47;98951.72;;;8.36;100.00
58473;BME280;44775;51.564;5.460;2023-04-01T02:53:15;98957.25;;;8.35;100.00
58473;BME280;44775;51.564;5.460;2023-04-01T02:55:40;98950.28;;;8.27;100.00
58473;BME280;44775;51.564;5.460;2023-04-01T02:58:06;98942.69;;;8.24;100.00
58473;BME280;44775;51.564;5.460;2023-04-01T03:00:31;98944.34;;;8.32;100.00
58473;BME280;44775;51.564;5.460;2023-04-01T03:02:57;98966.03;;;8.28;100.00
58473;BME280;44775;51.564;5.460;2023-04-01T03:05:22;98960.50;;;8.30;100.00
58473;BME280;44775;51.564;5.460;2023-04-01T03:07:48;98958.84;;;8.22;100.00
58473;BME280;44775;51.564;5.460;2023-04-01T03:10:14;98967.47;;;8.24;100.00
58473;BME280;44775;51.564;5.460;2023-04-01T03:12:40;98966.44;;;8.25;100.00
58473;BME280;44775;51.564;5.460;2023-04-01T03:15:05;98964.81;;;8.24;100.00
58473;BME280;44775;51.564;5.460;2023-04-01T03:17:31;98968.66;;;8.22;100.00
58473;BME280;44775;51.564;5.460;2023-04-01T03:19:56;98963.34;;;8.22;100.00
58473;BME280;44775;51.564;5.460;2023-04-01T03:22:21;98970.31;;;8.29;100.00
58473;BME280;44775;51.564;5.460;2023-04-01T03:24:48;98972.75;;;8.18;100.00
58473;BME280;44775;51.564;5.460;2023-04-01T03:27:13;98972.16;;;8.22;100.00
58473;BME280;44775;51.564;5.460;2023-04-01T03:29:38;98982.19;;;8.20;100.00
58473;BME280;44775;51.564;5.460;2023-04-01T03:32:04;98974.78;;;8.16;100.00
58473;BME280;44775;51.564;5.460;2023-04-01T03:34:30;98975.63;;;8.23;100.00
58473;BME280;44775;51.564;5.460;2023-04-01T03:36:55;98977.88;;;8.19;100.00
58473;BME280;44775;51.564;5.460;2023-04-01T03:39:21;98982.75;;;8.16;100.00
58473;BME280;44775;51.564;5.460;2023-04-01T03:41:47;98977.44;;;8.16;100.00
58473;BME280;44775;51.564;5.460;2023-04-01T03:44:12;98976.44;;;8.17;100.00
58473;BME280;44775;51.564;5.460;2023-04-01T03:46:37;98977.44;;;8.16;100.00
58473;BME280;44775;51.564;5.460;2023-04-01T03:49:06;98988.97;;;8.29;100.00
58473;BME280;44775;51.564;5.460;2023-04-01T03:51:39;98986.28;;;8.23;100.00
58473;BME280;44775;51.564;5.460;2023-04-01T03:54:05;98995.69;;;8.19;100.00
58473;BME280;44775;51.564;5.460;2023-04-01T03:56:31;98996.28;;;8.14;100.00
58473;BME280;44775;51.564;5.460;2023-04-01T03:58:56;98989.72;;;8.10;100.00
58473;BME280;44775;51.564;5.460;2023-04-01T04:01:22;98987.47;;;8.14;100.00
58473;BME280;44775;51.564;5.460;2023-04-01T04:03:48;99001.22;;;8.17;100.00
58473;BME280;44775;51.564;5.460;2023-04-01T04:06:14;98999.22;;;8.33;100.00
58473;BME280;44775;51.564;5.460;2023-04-01T04:08:40;99005.63;;;8.38;100.00
58473;BME280;44775;51.564;5.460;2023-04-01T04:11:05;98989.78;;;8.23;100.00
58473;BME280;44775;51.564;5.460;2023-04-01T04:13:30;99006.75;;;8.22;100.00
58473;BME280;44775;51.564;5.460;2023-04-01T04:15:56;98999.13;;;8.13;100.00
58473;BME280;44775;51.564;5.460;2023-04-01T04:18:21;98989.09;;;8.08;100.00
58473;BME280;44775;51.564;5.460;2023-04-01T04:20:47;99016.97;;;8.19;100.00
58473;BME280;44775;51.564;5.460;2023-04-01T04:23:15;99012.84;;;8.16;100.00
58473;BME280;44775;51.564;5.460;2023-04-01T04:25:40;99006.75;;;8.22;100.00
58473;BME280;44775;51.564;5.460;2023-04-01T04:28:06;99024.97;;;8.25;100.00
58473;BME280;44775;51.564;5.460;2023-04-01T04:30:31;99017.56;;;8.14;100.00
58473;BME280;44775;51.564;5.460;2023-04-01T04:32:56;99014.72;;;8.22;100.00
58473;BME280;44775;51.564;5.460;2023-04-01T04:35:22;99021.25;;;8.20;100.00
58473;BME280;44775;51.564;5.460;2023-04-01T04:37:47;99027.59;;;8.19;100.00
58473;BME280;44775;51.564;5.460;2023-04-01T04:40:12;99023.09;;;8.19;100.00
58473;BME280;44775;51.564;5.460;2023-04-01T04:42:38;99025.75;;;8.19;100.00
58473;BME280;44775;51.564;5.460;2023-04-01T04:45:03;99027.00;;;8.17;100.00
58473;BME280;44775;51.564;5.460;2023-04-01T04:47:29;99040.47;;;8.15;100.00
58473;BME280;44775;51.564;5.460;2023-04-01T04:49:54;99032.72;;;8.14;100.00
58473;BME280;44775;51.564;5.460;2023-04-01T04:52:19;99037.84;;;8.22;100.00
58473;BME280;44775;51.564;5.460;2023-04-01T04:54:45;99041.31;;;8.16;100.00
58473;BME280;44775;51.564;5.460;2023-04-01T04:57:10;99054.00;;;8.14;100.00
58473;BME280;44775;51.564;5.460;2023-04-01T04:59:35;99049.66;;;8.13;100.00
58473;BME280;44775;51.564;5.460;2023-04-01T05:02:01;99061.94;;;8.07;100.00
58473;BME280;44775;51.564;5.460;2023-04-01T05:04:27;99056.38;;;8.02;100.00
58473;BME280;44775;51.564;5.460;2023-04-01T05:06:52;99070.97;;;8.13;100.00
58473;BME280;44775;51.564;5.460;2023-04-01T05:09:17;99058.00;;;8.03;100.00
58473;BME280;44775;51.564;5.460;2023-04-01T05:11:42;99073.81;;;8.11;100.00
58473;BME280;44775;51.564;5.460;2023-04-01T05:14:13;99072.81;;;8.12;100.00
58473;BME280;44775;51.564;5.460;2023-04-01T05:16:39;99074.44;;;8.07;100.00
58473;BME280;44775;51.564;5.460;2023-04-01T05:19:04;99070.59;;;8.22;100.00
58473;BME280;44775;51.564;5.460;2023-04-01T05:21:29;99085.66;;;8.09;100.00
58473;BME280;44775;51.564;5.460;2023-04-01T05:23:54;99077.72;;;8.15;100.00
58473;BME280;44775;51.564;5.460;2023-04-01T05:26:20;99072.13;;;7.97;100.00
58473;BME280;44775;51.564;5.460;2023-04-01T05:28:45;99083.44;;;8.12;100.00
58473;BME280;44775;51.564;5.460;2023-04-01T05:31:10;99094.84;;;8.06;100.00
58473;BME280;44775;51.564;5.460;2023-04-01T05:33:36;99093.00;;;8.00;100.00
58473;BME280;44775;51.564;5.460;2023-04-01T05:36:15;99106.34;;;8.07;100.00
58473;BME280;44775;51.564;5.460;2023-04-01T05:38:40;99109.41;;;8.03;100.00
58473;BME280;44775;51.564;5.460;2023-04-01T05:41:07;99098.88;;;7.95;100.00
58473;BME280;44775;51.564;5.460;2023-04-01T05:43:35;99109.44;;;8.10;100.00
58473;BME280;44775;51.564;5.460;2023-04-01T05:46:01;99105.88;;;8.03;100.00
58473;BME280;44775;51.564;5.460;2023-04-01T05:48:26;99107.16;;;8.07;100.00
58473;BME280;44775;51.564;5.460;2023-04-01T05:50:51;99117.03;;;8.20;100.00
58473;BME280;44775;51.564;5.460;2023-04-01T05:53:17;99125.06;;;8.26;100.00
58473;BME280;44775;51.564;5.460;2023-04-01T05:55:42;99129.56;;;8.26;100.00
58473;BME280;44775;51.564;5.460;2023-04-01T05:58:08;99125.25;;;8.18;100.00
58473;BME280;44775;51.564;5.460;2023-04-01T06:00:33;99126.09;;;8.25;100.00
58473;BME280;44775;51.564;5.460;2023-04-01T06:02:59;99141.34;;;8.38;100.00
58473;BME280;44775;51.564;5.460;2023-04-01T06:05:28;99147.84;;;8.36;100.00
58473;BME280;44775;51.564;5.460;2023-04-01T06:08:06;99145.88;;;8.38;100.00
58473;BME280;44775;51.564;5.460;2023-04-01T06:13:43;99162.31;;;8.48;100.00
58473;BME280;44775;51.564;5.460;2023-04-01T06:27:19;99182.75;;;8.41;100.00
58473;BME280;44775;51.564;5.460;2023-04-01T06:37:51;99194.31;;;8.61;100.00
58473;BME280;44775;51.564;5.460;2023-04-01T06:40:39;99197.94;;;8.54;100.00
58473;BME280;44775;51.564;5.460;2023-04-01T06:46:11;99199.19;;;8.51;100.00
58473;BME280;44775;51.564;5.460;2023-04-01T06:51:47;99207.16;;;8.51;100.00
58473;BME280;44775;51.564;5.460;2023-04-01T06:54:20;99209.69;;;8.66;100.00
58473;BME280;44775;51.564;5.460;2023-04-01T06:56:52;99210.53;;;8.66;100.00
58473;BME280;44775;51.564;5.460;2023-04-01T06:59:32;99224.91;;;8.72;100.00
58473;BME280;44775;51.564;5.460;2023-04-01T07:02:06;99229.84;;;8.75;100.00
58473;BME280;44775;51.564;5.460;2023-04-01T07:04:44;99229.03;;;8.74;100.00
58473;BME280;44775;51.564;5.460;2023-04-01T07:09:43;99230.31;;;8.85;100.00
58473;BME280;44775;51.564;5.460;2023-04-01T07:15:03;99241.63;;;9.01;100.00
58473;BME280;44775;51.564;5.460;2023-04-01T07:17:31;99245.75;;;9.03;100.00
58473;BME280;44775;51.564;5.460;2023-04-01T07:20:16;99250.75;;;9.19;100.00
58473;BME280;44775;51.564;5.460;2023-04-01T07:22:50;99247.28;;;9.26;100.00
58473;BME280;44775;51.564;5.460;2023-04-01T07:25:21;99260.69;;;9.39;100.00
58473;BME280;44775;51.564;5.460;2023-04-01T07:27:47;99260.69;;;9.45;100.00
58473;BME280;44775;51.564;5.460;2023-04-01T07:30:18;99264.19;;;9.46;100.00
58473;BME280;44775;51.564;5.460;2023-04-01T07:33:19;99264.84;;;9.68;100.00
58473;BME280;44775;51.564;5.460;2023-04-01T07:35:57;99274.34;;;9.84;100.00
58473;BME280;44775;51.564;5.460;2023-04-01T07:38:34;99277.22;;;9.82;100.00
58473;BME280;44775;51.564;5.460;2023-04-01T07:49:30;99288.50;;;9.91;100.00
58473;BME280;44775;51.564;5.460;2023-04-01T07:58:29;99307.63;;;10.01;100.00
58473;BME280;44775;51.564;5.460;2023-04-01T08:01:30;99316.25;;;10.03;100.00
58473;BME280;44775;51.564;5.460;2023-04-01T08:07:09;99312.13;;;9.94;100.00
58473;BME280;44775;51.564;5.460;2023-04-01T08:09:56;99325.91;;;10.04;100.00
58473;BME280;44775;51.564;5.460;2023-04-01T08:12:46;99322.19;;;10.05;100.00
58473;BME280;44775;51.564;5.460;2023-04-01T08:15:26;99338.44;;;10.10;100.00
58473;BME280;44775;51.564;5.460;2023-04-01T08:20:41;99350.41;;;10.28;100.00
58473;BME280;44775;51.564;5.460;2023-04-01T08:23:21;99338.47;;;10.24;100.00
58473;BME280;44775;51.564;5.460;2023-04-01T08:29:08;99351.03;;;10.30;100.00
58473;BME280;44775;51.564;5.460;2023-04-01T08:31:46;99353.09;;;10.48;100.00
58473;BME280;44775;51.564;5.460;2023-04-01T08:34:19;99358.22;;;10.49;100.00
58473;BME280;44775;51.564;5.460;2023-04-01T08:36:51;99352.47;;;10.52;100.00
58473;BME280;44775;51.564;5.460;2023-04-01T08:39:35;99368.09;;;10.62;100.00
58473;BME280;44775;51.564;5.460;2023-04-01T08:47:38;99383.72;;;10.85;100.00
58473;BME280;44775;51.564;5.460;2023-04-01T08:50:23;99388.25;;;10.91;100.00
58473;BME280;44775;51.564;5.460;2023-04-01T09:12:55;99425.66;;;10.64;100.00
58473;BME280;44775;51.564;5.460;2023-04-01T09:21:24;99430.16;;;10.57;100.00
58473;BME280;44775;51.564;5.460;2023-04-01T09:27:03;99434.91;;;10.95;100.00
58473;BME280;44775;51.564;5.460;2023-04-01T09:35:47;99442.53;;;10.92;100.00
58473;BME280;44775;51.564;5.460;2023-04-01T09:38:21;99438.63;;;10.94;100.00
58473;BME280;44775;51.564;5.460;2023-04-01T09:40:55;99441.72;;;11.04;100.00
58473;BME280;44775;51.564;5.460;2023-04-01T09:43:25;99451.78;;;11.16;100.00
58473;BME280;44775;51.564;5.460;2023-04-01T09:48:52;99460.19;;;11.46;100.00
58473;BME280;44775;51.564;5.460;2023-04-01T10:05:41;99477.00;;;11.73;100.00
58473;BME280;44775;51.564;5.460;2023-04-01T10:08:42;99479.25;;;11.76;100.00
58473;BME280;44775;51.564;5.460;2023-04-01T10:17:30;99476.22;;;11.52;100.00
58473;BME280;44775;51.564;5.460;2023-04-01T10:28:58;99494.31;;;11.37;100.00
58473;BME280;44775;51.564;5.460;2023-04-01T10:36:55;99507.69;;;11.50;100.00
58473;BME280;44775;51.564;5.460;2023-04-01T10:45:32;99511.41;;;11.49;100.00
58473;BME280;44775;51.564;5.460;2023-04-01T10:59:20;99526.00;;;10.87;100.00
58473;BME280;44775;51.564;5.460;2023-04-01T11:04:49;99524.53;;;10.78;100.00
58473;BME280;44775;51.564;5.460;2023-04-01T11:15:30;99528.81;;;10.66;100.00
58473;BME280;44775;51.564;5.460;2023-04-01T11:18:25;99538.69;;;10.72;100.00
58473;BME280;44775;51.564;5.460;2023-04-01T11:21:12;99544.22;;;10.63;100.00
58473;BME280;44775;51.564;5.460;2023-04-01T11:24:16;99544.22;;;10.63;100.00
58473;BME280;44775;51.564;5.460;2023-04-01T11:33:04;99551.84;;;10.67;100.00
58473;BME280;44775;51.564;5.460;2023-04-01T11:35:38;99563.69;;;10.51;100.00
58473;BME280;44775;51.564;5.460;2023-04-01T11:38:31;99546.84;;;10.50;100.00
58473;BME280;44775;51.564;5.460;2023-04-01T11:44:24;99564.97;;;10.61;100.00
58473;BME280;44775;51.564;5.460;2023-04-01T11:58:50;99585.16;;;10.77;100.00
58473;BME280;44775;51.564;5.460;2023-04-01T12:01:21;99591.50;;;10.76;100.00
58473;BME280;44775;51.564;5.460;2023-04-01T12:04:31;99595.44;;;10.74;100.00
58473;BME280;44775;51.564;5.460;2023-04-01T12:12:46;99592.31;;;10.63;100.00
58473;BME280;44775;51.564;5.460;2023-04-01T12:18:42;99600.34;;;10.63;100.00
58473;BME280;44775;51.564;5.460;2023-04-01T12:21:32;99607.91;;;10.60;100.00
58473;BME280;44775;51.564;5.460;2023-04-01T12:24:25;99611.25;;;10.75;100.00
58473;BME280;44775;51.564;5.460;2023-04-01T12:38:31;99628.50;;;11.34;100.00
58473;BME280;44775;51.564;5.460;2023-04-01T12:44:45;99631.75;;;11.23;100.00
58473;BME280;44775;51.564;5.460;2023-04-01T12:50:33;99642.69;;;11.28;100.00
58473;BME280;44775;51.564;5.460;2023-04-01T12:55:54;99646.34;;;11.27;100.00
58473;BME280;44775;51.564;5.460;2023-04-01T13:07:00;99659.47;;;11.08;100.00
58473;BME280;44775;51.564;5.460;2023-04-01T13:09:41;99656.84;;;11.22;100.00
58473;BME280;44775;51.564;5.460;2023-04-01T13:12:29;99667.38;;;11.37;100.00
58473;BME280;44775;51.564;5.460;2023-04-01T13:15:19;99663.84;;;11.23;100.00
58473;BME280;44775;51.564;5.460;2023-04-01T13:20:14;99676.19;;;11.30;100.00
58473;BME280;44775;51.564;5.460;2023-04-01T13:28:28;99685.88;;;11.25;100.00
58473;BME280;44775;51.564;5.460;2023-04-01T13:42:23;99699.59;;;11.08;100.00
58473;BME280;44775;51.564;5.460;2023-04-01T13:45:12;99695.47;;;11.13;100.00
58473;BME280;44775;51.564;5.460;2023-04-01T13:55:55;99717.25;;;11.09;100.00
58473;BME280;44775;51.564;5.460;2023-04-01T13:59:03;99716.25;;;11.04;100.00
58473;BME280;44775;51.564;5.460;2023-04-01T14:01:55;99718.31;;;11.08;100.00
58473;BME280;44775;51.564;5.460;2023-04-01T14:04:46;99722.63;;;11.09;100.00
58473;BME280;44775;51.564;5.460;2023-04-01T14:13:05;99726.31;;;11.08;100.00
58473;BME280;44775;51.564;5.460;2023-04-01T14:15:47;99729.22;;;11.14;100.00
58473;BME280;44775;51.564;5.460;2023-04-01T14:18:39;99732.53;;;11.16;100.00
58473;BME280;44775;51.564;5.460;2023-04-01T14:26:45;99742.59;;;11.20;100.00
58473;BME280;44775;51.564;5.460;2023-04-01T14:32:14;99742.19;;;11.17;100.00
58473;BME280;44775;51.564;5.460;2023-04-01T14:34:56;99738.84;;;11.01;100.00
58473;BME280;44775;51.564;5.460;2023-04-01T14:40:47;99758.19;;;11.10;100.00
58473;BME280;44775;51.564;5.460;2023-04-01T14:43:28;99757.38;;;11.09;100.00
58473;BME280;44775;51.564;5.460;2023-04-01T14:51:14;99765.22;;;11.11;100.00
58473;BME280;44775;51.564;5.460;2023-04-01T14:54:02;99764.22;;;11.19;100.00
58473;BME280;44775;51.564;5.460;2023-04-01T14:56:43;99765.78;;;11.06;100.00
58473;BME280;44775;51.564;5.460;2023-04-01T14:59:29;99767.78;;;10.91;100.00
58473;BME280;44775;51.564;5.460;2023-04-01T15:02:28;99772.06;;;10.85;100.00
58473;BME280;44775;51.564;5.460;2023-04-01T15:05:04;99777.34;;;10.79;100.00
58473;BME280;44775;51.564;5.460;2023-04-01T15:07:56;99776.31;;;10.80;100.00
58473;BME280;44775;51.564;5.460;2023-04-01T15:10:49;99783.91;;;10.76;100.00
58473;BME280;44775;51.564;5.460;2023-04-01T15:13:43;99786.59;;;10.76;100.00
58473;BME280;44775;51.564;5.460;2023-04-01T15:16:25;99784.56;;;10.78;100.00
58473;BME280;44775;51.564;5.460;2023-04-01T15:24:21;99800.63;;;10.85;100.00
58473;BME280;44775;51.564;5.460;2023-04-01T15:27:06;99790.72;;;10.79;100.00
58473;BME280;44775;51.564;5.460;2023-04-01T15:38:16;99817.91;;;10.89;100.00
58473;BME280;44775;51.564;5.460;2023-04-01T15:40:56;99823.03;;;10.84;100.00
58473;BME280;44775;51.564;5.460;2023-04-01T15:46:30;99831.84;;;10.78;100.00
58473;BME280;44775;51.564;5.460;2023-04-01T15:54:24;99825.84;;;10.48;100.00
58473;BME280;44775;51.564;5.460;2023-04-01T16:16:23;99838.69;;;10.16;100.00
58473;BME280;44775;51.564;5.460;2023-04-01T16:32:40;99849.75;;;9.77;100.00
58473;BME280;44775;51.564;5.460;2023-04-01T16:35:29;99864.13;;;9.76;100.00
58473;BME280;44775;51.564;5.460;2023-04-01T16:38:08;99863.09;;;9.77;100.00
58473;BME280;44775;51.564;5.460;2023-04-01T16:43:43;99858.06;;;9.67;100.00
58473;BME280;44775;51.564;5.460;2023-04-01T16:48:52;99860.06;;;9.65;100.00
58473;BME280;44775;51.564;5.460;2023-04-01T16:51:22;99866.88;;;9.67;100.00
58473;BME280;44775;51.564;5.460;2023-04-01T16:53:52;99880.22;;;9.82;100.00
58473;BME280;44775;51.564;5.460;2023-04-01T16:56:38;99880.81;;;9.84;100.00
58473;BME280;44775;51.564;5.460;2023-04-01T17:01:52;99903.13;;;10.13;100.00
58473;BME280;44775;51.564;5.460;2023-04-01T17:04:36;99911.13;;;10.28;100.00
58473;BME280;44775;51.564;5.460;2023-04-01T17:12:37;99927.22;;;10.56;100.00
58473;BME280;44775;51.564;5.460;2023-04-01T17:15:16;99927.47;;;10.61;100.00
58473;BME280;44775;51.564;5.460;2023-04-01T17:20:55;99938.59;;;10.64;100.00
58473;BME280;44775;51.564;5.460;2023-04-01T17:26:01;99949.66;;;10.61;100.00
58473;BME280;44775;51.564;5.460;2023-04-01T17:28:41;99954.88;;;10.70;100.00
58473;BME280;44775;51.564;5.460;2023-04-01T17:31:18;99961.31;;;10.75;100.00
58473;BME280;44775;51.564;5.460;2023-04-01T17:36:27;99975.25;;;10.71;100.00
58473;BME280;44775;51.564;5.460;2023-04-01T17:42:09;99990.25;;;10.93;100.00
58473;BME280;44775;51.564;5.460;2023-04-01T17:50:22;100017.84;;;10.94;100.00
58473;BME280;44775;51.564;5.460;2023-04-01T17:53:19;100018.69;;;10.79;100.00
58473;BME280;44775;51.564;5.460;2023-04-01T17:56:04;100023.72;;;10.89;100.00
58473;BME280;44775;51.564;5.460;2023-04-01T17:58:45;100020.09;;;10.75;100.00
58473;BME280;44775;51.564;5.460;2023-04-01T18:23:02;100079.53;;;10.41;100.00
58473;BME280;44775;51.564;5.460;2023-04-01T18:25:33;100083.47;;;10.45;100.00
58473;BME280;44775;51.564;5.460;2023-04-01T18:30:32;100098.09;;;10.49;100.00
58473;BME280;44775;51.564;5.460;2023-04-01T18:33:23;100111.53;;;10.71;100.00
58473;BME280;44775;51.564;5.460;2023-04-01T18:35:54;100118.03;;;10.83;100.00
58473;BME280;44775;51.564;5.460;2023-04-01T18:38:33;100125.28;;;11.04;100.00
58473;BME280;44775;51.564;5.460;2023-04-01T18:43:45;100133.00;;;10.77;100.00
58473;BME280;44775;51.564;5.460;2023-04-01T18:46:19;100137.13;;;10.80;100.00
58473;BME280;44775;51.564;5.460;2023-04-01T18:51:37;100167.97;;;10.97;100.00
58473;BME280;44775;51.564;5.460;2023-04-01T18:54:32;100170.16;;;11.08;100.00
58473;BME280;44775;51.564;5.460;2023-04-01T18:57:24;100175.44;;;11.02;100.00
58473;BME280;44775;51.564;5.460;2023-04-01T18:59:53;100171.13;;;10.86;100.00
58473;BME280;44775;51.564;5.460;2023-04-01T19:07:54;100198.59;;;10.35;100.00
58473;BME280;44775;51.564;5.460;2023-04-01T19:18:39;100220.25;;;10.03;100.00
58473;BME280;44775;51.564;5.460;2023-04-01T19:24:03;100241.53;;;10.34;100.00
58473;BME280;44775;51.564;5.460;2023-04-01T19:32:06;100254.41;;;10.30;100.00
58473;BME280;44775;51.564;5.460;2023-04-01T19:34:59;100259.38;;;10.33;100.00
58473;BME280;44775;51.564;5.460;2023-04-01T19:37:32;100268.22;;;10.34;100.00
58473;BME280;44775;51.564;5.460;2023-04-01T19:43:02;100267.28;;;10.27;100.00
58473;BME280;44775;51.564;5.460;2023-04-01T19:51:03;100282.84;;;10.00;100.00
58473;BME280;44775;51.564;5.460;2023-04-01T19:56:22;100291.00;;;9.99;100.00
58473;BME280;44775;51.564;5.460;2023-04-01T20:04:13;100318.78;;;9.89;100.00
58473;BME280;44775;51.564;5.460;2023-04-01T20:07:07;100311.19;;;10.01;100.00
58473;BME280;44775;51.564;5.460;2023-04-01T20:12:19;100342.69;;;10.06;100.00
58473;BME280;44775;51.564;5.460;2023-04-01T20:14:57;100341.59;;;10.15;100.00
58473;BME280;44775;51.564;5.460;2023-04-01T20:17:44;100352.88;;;10.25;100.00
58473;BME280;44775;51.564;5.460;2023-04-01T20:25:42;100367.78;;;10.20;100.00
58473;BME280;44775;51.564;5.460;2023-04-01T20:28:21;100377.25;;;10.30;100.00
58473;BME280;44775;51.564;5.460;2023-04-01T20:47:36;100409.81;;;9.63;100.00
58473;BME280;44775;51.564;5.460;2023-04-01T20:50:11;100414.22;;;9.40;100.00
58473;BME280;44775;51.564;5.460;2023-04-01T20:56:02;100425.75;;;9.80;100.00
58473;BME280;44775;51.564;5.460;2023-04-01T21:04:12;100445.69;;;9.44;100.00
58473;BME280;44775;51.564;5.460;2023-04-01T21:10:01;100451.25;;;9.35;100.00
58473;BME280;44775;51.564;5.460;2023-04-01T21:12:48;100457.34;;;9.60;100.00
58473;BME280;44775;51.564;5.460;2023-04-01T21:15:25;100466.00;;;9.62;100.00
58473;BME280;44775;51.564;5.460;2023-04-01T21:17:58;100476.59;;;9.78;100.00
58473;BME280;44775;51.564;5.460;2023-04-01T21:21:14;100482.41;;;9.90;100.00
58473;BME280;44775;51.564;5.460;2023-04-01T21:23:47;100493.63;;;9.77;100.00
58473;BME280;44775;51.564;5.460;2023-04-01T21:26:24;100503.50;;;10.08;100.00
58473;BME280;44775;51.564;5.460;2023-04-01T21:35:14;100518.81;;;9.83;100.00
58473;BME280;44775;51.564;5.460;2023-04-01T21:43:05;100521.19;;;9.69;100.00
58473;BME280;44775;51.564;5.460;2023-04-01T21:48:46;100535.72;;;9.42;100.00
58473;BME280;44775;51.564;5.460;2023-04-01T21:51:32;100545.91;;;9.55;100.00
58473;BME280;44775;51.564;5.460;2023-04-01T21:54:16;100551.09;;;9.32;100.00